Portada
METAR-TAF:

METAR-TAF

Aeroports :

Aizawl, Índia

latitud: 23-50-18N, longitud: 92-37-13E, altitud: 405 m

Observació

L'informe es va fer fa 11 hores i 46 minuts, a les 11:00 UTC
Vent 3 kt del Nord/Nord-Est
Temperatura 24°C
Humitat 65%
Pressió 1014 hPa
Visibilitat: 3500 m
Escasses núvols a una alçada de 1800 ft
calitja

METAR: VELP 171100Z 03003KT 3500 HZ FEW018 24/17 Q1014 BECMG 3000 BR HZ

Hora: 04:16 (22:46 UTC)

Pronòstic

L'informe es va fer fa 14 hores i 46 minuts, a les 08:00 UTC
Pronòstic vàlid del 17 a les 09 UTC al 17 a les 18 UTC
Vent 4 kt del Nord/Nord-Est
Visibilitat: 5000 m
Escasses núvols a una alçada de 1800 ft
calitja
Evolucionant progressivament
l' 17 a les 12 UTC al 17 a les 14 UTC
Vent kt del Nord
Visibilitat: 3000 m
boirina

TAF: VELP 170800Z 1709/1718 03004KT 5000 HZ FEW018 BECMG 1712/1714 00000KT 3000 BR NSC

Observacions i pronòstics meteorològics de més de 4000 aeroports (METAR i TAF).

Les estacions disponibles són els punts grocs i vermells al mapa.

Posi el ratolí al punt desitjat per veure el nom de l'estació.

Feu clic per veure les observacions i els pronòstics meteorològics.

Per canviar el mapa: feu clic els botons verds amb una creu de color negre per apropar; al botó verd amb un guió per allunyar la imatge; o en les fletxes verdes per a mapes adjacents.


METAR-TAF: